TimeEST,TemperatureF,Dew PointF,Humidity,Sea Level PressureIn,VisibilityMPH,Wind Direction,Wind SpeedMPH,Gust SpeedMPH,PrecipitationIn,Events,Conditions,WindDirDegrees,DateUTC
12:15 AM,23.0,5.0,46,30.07,10.0,NNW,12.7,21.9,N/A,,Clear,330,2012-12-31 05:15:00
12:35 AM,23.0,5.0,46,30.07,10.0,NW,10.4,20.7,N/A,,Clear,320,2012-12-31 05:35:00
12:55 AM,23.0,6.8,50,30.06,10.0,NW,10.4,-,N/A,,Clear,320,2012-12-31 05:55:00
1:15 AM,23.0,6.8,50,30.07,10.0,NW,10.4,16.1,N/A,,Clear,310,2012-12-31 06:15:00
1:35 AM,23.0,6.8,50,30.08,10.0,West,3.5,-,N/A,,Clear,260,2012-12-31 06:35:00
1:55 AM,21.2,6.8,54,30.09,10.0,West,4.6,-,N/A,,Clear,280,2012-12-31 06:55:00
2:15 AM,21.2,6.8,54,30.09,10.0,West,3.5,-,N/A,,Clear,270,2012-12-31 07:15:00
2:55 AM,21.2,6.8,54,30.09,10.0,SW,3.5,-,N/A,,Clear,230,2012-12-31 07:55:00
3:35 AM,21.2,6.8,54,30.08,10.0,SW,3.5,-,N/A,,Clear,220,2012-12-31 08:35:00
3:55 AM,19.4,6.8,58,30.08,10.0,SSW,4.6,-,N/A,,Clear,200,2012-12-31 08:55:00
4:15 AM,19.4,6.8,58,30.07,10.0,SW,3.5,-,N/A,,Clear,230,2012-12-31 09:15:00
4:35 AM,19.4,6.8,58,30.09,10.0,WSW,4.6,-,N/A,,Clear,250,2012-12-31 09:35:00
4:55 AM,19.4,8.6,63,30.09,10.0,SW,3.5,-,N/A,,Mostly Cloudy,230,2012-12-31 09:55:00
5:35 AM,19.4,8.6,63,30.09,10.0,SW,3.5,-,N/A,,Scattered Clouds,220,2012-12-31 10:35:00
5:55 AM,17.6,6.8,63,30.09,10.0,Calm,Calm,-,N/A,,Partly Cloudy,0,2012-12-31 10:55:00
6:45 AM,17.6,8.6,68,30.09,10.0,WSW,4.6,-,N/A,,Clear,240,2012-12-31 11:45:00
7:45 AM,19.4,8.6,63,30.10,10.0,WSW,4.6,-,N/A,,Scattered Clouds,250,2012-12-31 12:45:00
8:10 AM,21.2,10.4,63,30.11,10.0,West,4.6,-,N/A,,Mostly Cloudy,260,2012-12-31 13:10:00
8:50 AM,24.8,14.0,64,30.09,10.0,West,4.6,-,N/A,,Scattered Clouds,280,2012-12-31 13:50:00
9:45 AM,28.4,15.8,59,30.10,10.0,West,8.1,16.1,N/A,,Clear,280,2012-12-31 14:45:00
10:45 AM,28.4,15.8,59,30.07,10.0,West,9.2,23.0,N/A,,Clear,280,2012-12-31 15:45:00
11:45 AM,30.2,15.8,55,30.04,10.0,West,11.5,20.7,N/A,,Clear,280,2012-12-31 16:45:00
12:45 PM,32.0,17.6,55,30.00,10.0,WNW,11.5,20.7,N/A,,Clear,290,2012-12-31 17:45:00
1:45 PM,33.8,17.6,52,29.98,10.0,WNW,11.5,-,N/A,,Clear,290,2012-12-31 18:45:00
2:45 PM,33.8,17.6,52,29.97,10.0,West,11.5,-,N/A,,Clear,270,2012-12-31 19:45:00
3:45 PM,33.8,17.6,52,29.94,10.0,West,6.9,-,N/A,,Clear,270,2012-12-31 20:45:00
4:45 PM,30.2,17.6,60,29.92,10.0,WSW,5.8,-,N/A,,Clear,240,2012-12-31 21:45:00
5:45 PM,33.8,17.6,52,29.91,10.0,West,6.9,-,N/A,,Clear,260,2012-12-31 22:45:00
6:45 PM,33.8,19.4,56,29.90,10.0,West,11.5,18.4,N/A,,Overcast,260,2012-12-31 23:45:00
7:45 PM,33.8,17.6,52,29.89,10.0,West,10.4,19.6,N/A,,Overcast,270,2013-01-01 00:45:00
8:45 PM,33.8,17.6,52,29.87,10.0,West,8.1,-,N/A,,Overcast,260,2013-01-01 01:45:00
8:55 PM,33.8,17.6,52,29.87,10.0,West,8.1,-,N/A,,Overcast,260,2013-01-01 01:55:00
9:15 PM,33.8,17.6,52,29.86,10.0,West,5.8,-,N/A,,Overcast,260,2013-01-01 02:15:00
9:35 PM,33.8,17.6,52,29.85,10.0,WSW,6.9,-,N/A,,Overcast,250,2013-01-01 02:35:00
10:15 PM,33.8,19.4,56,29.83,10.0,West,6.9,-,N/A,,Overcast,260,2013-01-01 03:15:00
10:35 PM,33.8,19.4,56,29.84,10.0,West,8.1,-,N/A,,Overcast,260,2013-01-01 03:35:00
10:55 PM,33.8,19.4,56,29.84,10.0,West,5.8,-,N/A,,Overcast,260,2013-01-01 03:55:00
11:15 PM,33.8,17.6,52,29.83,10.0,West,4.6,-,N/A,,Overcast,260,2013-01-01 04:15:00
11:35 PM,33.8,17.6,52,29.84,10.0,West,6.9,-,N/A,,Overcast,260,2013-01-01 04:35:00
11:55 PM,33.8,19.4,56,29.83,10.0,West,6.9,-,N/A,,Overcast,260,2013-01-01 04:55:00